This is the latest recevied weather packets stored in our database for station/object KJ5JYX. If no packets are shown the sender has not sent any weather packets the latest 10 day(s).
| Time | Temp. | Humidity | Pressure | Rain* | Wind** | Luminosity | Snow |
|---|---|---|---|---|---|---|---|
| 1777404382 | 32.78° C | 66% | 1013 hPa | 0 mm | - | 648 W/m² | - |
| 1777404079 | 32.22° C | 66% | 1013.4 hPa | 0 mm | - | 644 W/m² | - |
| 1777403774 | 32.22° C | 67% | 1013.4 hPa | 0 mm | - | 634 W/m² | - |
| 1777403474 | 32.22° C | 66% | 1013.3 hPa | 0 mm | - | 672 W/m² | - |
| 1777403174 | 32.22° C | 67% | 1013.2 hPa | 0 mm | - | 689 W/m² | - |
| 1777401355 | 31.67° C | 67% | 1013.5 hPa | 0 mm | - | 570 W/m² | - |
| 1777401050 | 31.67° C | 68% | 1013.4 hPa | 0 mm | - | 472 W/m² | - |
| 1777400444 | 31.11° C | 69% | 1013.5 hPa | 0 mm | - | 846 W/m² | - |
| 1777400144 | 31.11° C | 71% | 1013.5 hPa | 0 mm | - | 524 W/m² | - |
| 1777399236 | 30° C | 75% | 1013.8 hPa | 0 mm | - | 398 W/m² | - |
| 1777398630 | 29.44° C | 76% | 1014 hPa | 0 mm | - | 247 W/m² | - |
| 1777397720 | 28.89° C | 76% | 1013.8 hPa | 0 mm | - | 242 W/m² | - |
| 1777397416 | 28.89° C | 78% | 1014.1 hPa | 0 mm | - | 214 W/m² | - |
| 1777397112 | 28.33° C | 77% | 1014 hPa | 0 mm | - | 217 W/m² | - |
| 1777396506 | 28.89° C | 77% | 1013.7 hPa | 0 mm | - | 190 W/m² | - |
| 1777395594 | 28.33° C | 78% | 1013.7 hPa | 0 mm | - | 209 W/m² | - |
| 1777394077 | 27.78° C | 80% | 1013.5 hPa | 0 mm | - | 213 W/m² | - |
| 1777393772 | 27.78° C | 80% | 1013.4 hPa | 0 mm | - | 219 W/m² | - |
| 1777393466 | 27.78° C | 80% | 1013.5 hPa | 0 mm | - | 212 W/m² | - |
| 1777390730 | 27.22° C | 82% | 1013.4 hPa | 0 mm | - | 175 W/m² | - |
| 1777388912 | 26.11° C | 87% | 1013.7 hPa | 0 mm | - | 159 W/m² | - |
| 1777386789 | 25.56° C | 88% | 1013.6 hPa | 0 mm | - | 75 W/m² | - |
| 1777386486 | 25.56° C | 88% | 1013.7 hPa | 0 mm | - | 86 W/m² | - |
| 1777386183 | 25.56° C | 88% | 1013.7 hPa | 0 mm | - | 42 W/m² | - |
| 1777385880 | 25.56° C | 88% | 1013.6 hPa | 0 mm | - | 94 W/m² | - |
* Rain latest hour (hover to see other rain measurements)
** Current wind speed in m/s (hover to see current wind gust speed)